Time;durP1;ratioP1;P1;durP2;ratioP2;P2;SDS_P1;SDS_P2;PMS_P1;PMS_P2;Temp;Humidity;BMP_temperature;BMP_pressure;BME280_temperature;BME280_humidity;BME280_pressure;Samples;Min_cycle;Max_cycle;Signal;HPM_P1;HPM_P2
2023/02/10 00:02:11;;;;;;;32.73;24.50;;;1.10;32.50;;;;;;10447782;28;20745;-73
2023/02/10 00:07:14;;;;;;;28.87;20.27;;;1.10;32.60;;;;;;10446372;28;20259;-72
2023/02/10 00:12:17;;;;;;;29.97;22.83;;;1.10;32.60;;;;;;10437877;28;20240;-71
2023/02/10 00:17:22;;;;;;;36.30;23.83;;;1.00;32.30;;;;;;10435806;28;20229;-72
2023/02/10 00:22:25;;;;;;;31.30;23.80;;;0.90;32.30;;;;;;10441925;28;20233;-72
2023/02/10 00:27:28;;;;;;;28.03;20.77;;;0.70;32.20;;;;;;10438976;28;20229;-72
2023/02/10 00:32:32;;;;;;;29.93;20.47;;;0.50;32.60;;;;;;10446437;28;20235;-71
2023/02/10 00:37:36;;;;;;;33.00;22.30;;;0.40;33.00;;;;;;10433174;28;20225;-70
2023/02/10 00:42:39;;;;;;;29.57;22.23;;;0.40;33.00;;;;;;10438385;28;20236;-70
2023/02/10 00:47:43;;;;;;;30.60;21.30;;;0.40;33.00;;;;;;10435829;28;20220;-70
2023/02/10 00:52:46;;;;;;;29.13;20.97;;;0.30;32.90;;;;;;10442375;28;20231;-70
2023/02/10 00:57:50;;;;;;;30.47;22.60;;;0.20;32.80;;;;;;10443861;28;20235;-71
2023/02/10 01:02:54;;;;;;;23.57;18.97;;;0.20;32.90;;;;;;10444316;28;20246;-72
2023/02/10 01:07:57;;;;;;;28.00;20.13;;;0.20;32.80;;;;;;10441343;28;20248;-72
2023/02/10 01:13:01;;;;;;;26.70;19.73;;;0.20;33.60;;;;;;10443678;28;20235;-74
2023/02/10 01:18:05;;;;;;;26.17;20.17;;;0.20;32.80;;;;;;10442259;28;20579;-74
2023/02/10 01:23:09;;;;;;;20.40;16.73;;;0.10;32.70;;;;;;10435223;28;20243;-72
2023/02/10 01:28:12;;;;;;;25.83;19.90;;;0.10;32.70;;;;;;10451154;28;20237;-71
2023/02/10 01:33:17;;;;;;;28.10;20.00;;;0.10;32.70;;;;;;10431912;28;20267;-71
2023/02/10 01:38:20;;;;;;;24.00;17.70;;;0.10;32.80;;;;;;10443066;28;20639;-71
2023/02/10 01:43:23;;;;;;;25.97;20.47;;;0.00;32.70;;;;;;10437595;28;20229;-72
2023/02/10 01:48:28;;;;;;;26.57;20.10;;;0.00;32.70;;;;;;10436971;28;20229;-72
2023/02/10 01:53:31;;;;;;;27.53;20.17;;;0.00;32.70;;;;;;10438611;28;20237;-72
2023/02/10 01:58:35;;;;;;;26.10;19.60;;;-0.20;32.70;;;;;;10446530;28;20232;-72
2023/02/10 02:03:41;;;;;;;26.57;19.67;;;-0.30;33.40;;;;;;10434935;28;20249;-72
2023/02/10 02:08:44;;;;;;;25.93;18.30;;;-0.40;32.80;;;;;;10441759;28;20237;-72
2023/02/10 02:13:58;;;;;;;25.23;18.07;;;-0.50;33.10;;;;;;10434570;28;20233;-72
2023/02/10 02:19:14;;;;;;;23.87;18.70;;;-0.60;33.60;;;;;;10443113;28;20225;-75
2023/02/10 02:24:31;;;;;;;25.00;18.20;;;-0.60;33.70;;;;;;10444407;28;20240;-71
2023/02/10 02:30:22;;;;;;;24.00;18.23;;;-0.60;33.60;;;;;;10443715;28;20744;-72
2023/02/10 02:35:32;;;;;;;25.20;16.03;;;-0.60;34.90;;;;;;10446750;28;20863;-72
2023/02/10 02:40:35;;;;;;;21.27;15.63;;;-0.60;33.60;;;;;;10450182;28;20247;-73
2023/02/10 02:45:57;;;;;;;25.47;17.93;;;-0.60;33.50;;;;;;10448464;28;20237;-73
2023/02/10 02:51:09;;;;;;;24.63;17.47;;;-0.60;34.00;;;;;;10443178;28;20658;-75
2023/02/10 02:56:21;;;;;;;24.67;17.73;;;-0.60;33.80;;;;;;10445332;28;20231;-72
2023/02/10 03:01:35;;;;;;;22.73;17.43;;;-0.60;33.80;;;;;;10444663;28;20773;-72
2023/02/10 03:06:39;;;;;;;22.63;16.73;;;-0.60;33.80;;;;;;10450198;28;20237;-72
2023/02/10 03:11:42;;;;;;;27.60;18.03;;;-0.60;33.70;;;;;;10441821;28;20224;-72
2023/02/10 03:16:45;;;;;;;26.70;18.47;;;-0.60;34.40;;;;;;10445514;28;20228;-73
2023/02/10 03:21:50;;;;;;;27.67;19.07;;;-0.50;33.70;;;;;;10445466;28;20230;-72
2023/02/10 03:26:54;;;;;;;22.57;15.17;;;-0.50;33.60;;;;;;10445976;28;20316;-73
2023/02/10 03:32:01;;;;;;;20.30;15.43;;;-0.40;33.60;;;;;;10440435;28;20237;-73
2023/02/10 03:37:06;;;;;;;24.00;17.00;;;-0.30;33.50;;;;;;10440305;28;20653;-73
2023/02/10 03:42:09;;;;;;;23.87;17.60;;;-0.40;33.40;;;;;;10433993;28;20221;-70
2023/02/10 03:47:12;;;;;;;25.13;17.67;;;-0.40;33.20;;;;;;10441609;28;20604;-70
2023/02/10 03:52:17;;;;;;;21.60;15.57;;;-0.30;33.20;;;;;;10438877;28;20723;-71
2023/02/10 03:57:20;;;;;;;25.13;17.07;;;-0.30;33.10;;;;;;10439516;28;20246;-70
2023/02/10 04:02:23;;;;;;;24.20;17.77;;;-0.30;33.00;;;;;;10439815;28;20693;-73
2023/02/10 04:07:27;;;;;;;24.87;16.80;;;-0.20;33.10;;;;;;10445645;28;20707;-73
2023/02/10 04:12:31;;;;;;;26.67;18.30;;;-0.30;32.80;;;;;;10448418;28;20741;-73
2023/02/10 04:17:34;;;;;;;27.53;18.63;;;-0.40;32.60;;;;;;10444684;28;20807;-74
2023/02/10 04:22:38;;;;;;;25.47;18.63;;;-0.40;32.40;;;;;;10430540;28;20244;-72
2023/02/10 04:27:43;;;;;;;26.27;17.27;;;-0.50;32.30;;;;;;10438173;28;20225;-74
2023/02/10 04:32:46;;;;;;;20.73;14.93;;;-0.40;32.40;;;;;;10442187;28;20717;-73
2023/02/10 04:37:51;;;;;;;23.97;17.43;;;-0.60;32.60;;;;;;10442202;28;20228;-73
2023/02/10 04:42:54;;;;;;;24.50;17.67;;;-0.60;32.80;;;;;;10442521;28;20244;-73
2023/02/10 04:47:57;;;;;;;23.60;17.70;;;-0.70;32.60;;;;;;10448350;28;20702;-73
2023/02/10 04:53:02;;;;;;;23.10;17.13;;;-0.70;32.40;;;;;;10432404;28;20286;-74
2023/02/10 04:58:06;;;;;;;22.47;16.23;;;-0.80;32.60;;;;;;10437486;28;20229;-70
2023/02/10 05:03:09;;;;;;;23.27;16.63;;;-0.80;32.60;;;;;;10433232;28;20237;-71
2023/02/10 05:08:14;;;;;;;21.90;15.33;;;-0.90;32.70;;;;;;10443236;28;20224;-70
2023/02/10 05:13:17;;;;;;;24.73;15.87;;;-0.90;32.90;;;;;;10433464;28;20229;-71
2023/02/10 05:18:20;;;;;;;22.80;16.83;;;-0.90;32.80;;;;;;10436410;28;20662;-71
2023/02/10 05:23:25;;;;;;;21.57;16.20;;;-0.90;32.60;;;;;;10433986;28;20233;-70
2023/02/10 05:28:29;;;;;;;24.03;15.57;;;-1.00;32.60;;;;;;10431782;28;20232;-70
2023/02/10 05:33:34;;;;;;;19.20;14.33;;;-1.10;32.60;;;;;;10440075;28;20320;-70
2023/02/10 05:38:38;;;;;;;22.80;15.97;;;-1.10;32.70;;;;;;10450190;28;20239;-70
2023/02/10 05:43:42;;;;;;;24.57;16.20;;;-1.10;32.90;;;;;;10431247;28;20244;-70
2023/02/10 05:48:46;;;;;;;21.20;16.10;;;-1.10;32.80;;;;;;10445102;28;20220;-70
2023/02/10 05:53:50;;;;;;;23.90;17.50;;;-1.10;32.70;;;;;;10447291;28;20254;-70
2023/02/10 05:58:54;;;;;;;24.13;16.60;;;-1.20;32.70;;;;;;10443874;28;20257;-70
2023/02/10 06:03:57;;;;;;;25.97;17.20;;;-1.30;32.70;;;;;;10452281;28;20235;-70
2023/02/10 06:09:01;;;;;;;26.67;19.13;;;-1.30;32.90;;;;;;10448164;28;20703;-70
2023/02/10 06:14:05;;;;;;;22.17;16.13;;;-1.30;32.90;;;;;;10440564;28;20221;-70
2023/02/10 06:19:08;;;;;;;19.30;12.90;;;-1.30;33.00;;;;;;10446497;28;20228;-69
2023/02/10 06:24:13;;;;;;;25.33;17.37;;;-1.40;33.70;;;;;;10441805;28;20237;-70
2023/02/10 06:29:16;;;;;;;25.77;17.87;;;-1.20;36.10;;;;;;10439657;28;20591;-70
2023/02/10 06:34:19;;;;;;;22.87;16.53;;;-1.00;35.40;;;;;;10449141;28;20233;-70
2023/02/10 06:39:23;;;;;;;24.13;17.50;;;-0.90;34.40;;;;;;10434337;28;20248;-70
2023/02/10 06:44:26;;;;;;;26.83;19.00;;;-0.90;34.50;;;;;;10442234;28;20233;-70
2023/02/10 06:49:30;;;;;;;27.17;18.63;;;-0.90;33.60;;;;;;10444251;28;20292;-70
2023/02/10 06:54:34;;;;;;;27.87;18.23;;;-1.00;33.40;;;;;;10434113;28;20287;-70
2023/02/10 06:59:37;;;;;;;27.03;18.77;;;-1.00;33.30;;;;;;10438247;28;20827;-70
2023/02/10 07:04:41;;;;;;;34.23;23.47;;;-0.90;33.40;;;;;;10437206;28;20313;-71
2023/02/10 07:09:45;;;;;;;28.20;20.00;;;-1.00;33.20;;;;;;10436217;28;20282;-71
2023/02/10 07:14:48;;;;;;;31.27;20.83;;;-1.00;33.30;;;;;;10437005;28;20232;-70
2023/02/10 07:19:51;;;;;;;26.17;18.50;;;-1.20;33.10;;;;;;10441474;28;20241;-71
2023/02/10 07:24:56;;;;;;;43.37;25.80;;;-1.30;33.10;;;;;;10438810;28;20229;-70
2023/02/10 07:29:59;;;;;;;34.03;22.00;;;-1.30;33.40;;;;;;10437236;28;21032;-70
2023/02/10 07:35:02;;;;;;;29.00;19.97;;;-1.40;33.60;;;;;;10442776;28;20586;-70
2023/02/10 07:40:09;;;;;;;29.27;19.27;;;-1.30;33.90;;;;;;10440000;28;20616;-70
2023/02/10 07:45:12;;;;;;;33.73;20.07;;;-1.30;34.40;;;;;;10442224;28;20228;-70
2023/02/10 07:50:17;;;;;;;29.63;18.80;;;-1.20;34.40;;;;;;10429569;28;20231;-71
2023/02/10 07:55:22;;;;;;;27.77;19.30;;;-1.10;34.70;;;;;;10440266;28;20826;-70
2023/02/10 08:00:26;;;;;;;24.57;18.47;;;-1.00;35.10;;;;;;10440234;28;20801;-70
2023/02/10 08:05:29;;;;;;;25.90;19.50;;;-0.90;35.20;;;;;;10439221;28;20237;-70
2023/02/10 08:10:34;;;;;;;29.30;19.77;;;-0.70;35.70;;;;;;10431470;28;20713;-70
2023/02/10 08:15:37;;;;;;;24.77;18.30;;;-0.50;36.30;;;;;;10438868;28;20229;-70
2023/02/10 08:20:41;;;;;;;24.90;18.53;;;-0.30;36.20;;;;;;10432113;28;20228;-69
2023/02/10 08:25:46;;;;;;;26.67;19.60;;;0.00;36.40;;;;;;10439085;28;20224;-69
2023/02/10 08:30:49;;;;;;;30.13;21.47;;;0.20;36.50;;;;;;10437775;28;20323;-69
2023/02/10 08:35:53;;;;;;;29.90;21.23;;;0.40;36.90;;;;;;10433635;28;20244;-69
2023/02/10 08:40:58;;;;;;;29.27;22.37;;;0.70;36.70;;;;;;10433001;28;20224;-69
2023/02/10 08:46:02;;;;;;;31.67;21.20;;;1.00;37.00;;;;;;10438090;28;20759;-69
2023/02/10 08:51:08;;;;;;;27.60;22.00;;;1.30;37.00;;;;;;10432454;28;20235;-70
2023/02/10 08:56:17;;;;;;;29.40;22.67;;;1.40;37.10;;;;;;10442884;28;20918;-69
2023/02/10 09:01:22;;;;;;;29.53;23.13;;;1.70;37.30;;;;;;10424271;28;20232;-69
2023/02/10 09:06:31;;;;;;;32.73;24.43;;;1.90;37.00;;;;;;10432107;28;20247;-69
2023/02/10 09:11:36;;;;;;;30.33;24.30;;;2.20;37.20;;;;;;10427334;28;21007;-69
2023/02/10 09:16:39;;;;;;;36.03;26.33;;;2.40;37.20;;;;;;10427793;28;20221;-69
2023/02/10 09:21:43;;;;;;;30.87;24.67;;;2.70;37.20;;;;;;10425187;28;20747;-69
2023/02/10 09:26:51;;;;;;;32.27;25.67;;;2.90;37.00;;;;;;10427950;28;20295;-71
2023/02/10 09:31:54;;;;;;;30.60;26.47;;;3.10;37.20;;;;;;10434902;28;20605;-69
2023/02/10 09:37:00;;;;;;;30.07;25.03;;;3.30;37.00;;;;;;10439273;28;20748;-70
2023/02/10 09:42:17;;;;;;;32.03;25.43;;;3.60;37.10;;;;;;10439240;28;20320;-70
2023/02/10 09:47:37;;;;;;;30.80;25.17;;;3.80;37.30;;;;;;10435337;28;20234;-70
2023/02/10 09:52:53;;;;;;;31.07;25.70;;;4.00;37.30;;;;;;10432392;28;20241;-70
2023/02/10 09:58:01;;;;;;;29.47;25.00;;;4.20;37.00;;;;;;10437431;28;20747;-70
2023/02/10 10:03:07;;;;;;;27.90;23.43;;;4.40;36.90;;;;;;10438298;28;20229;-71
2023/02/10 10:08:21;;;;;;;26.83;22.93;;;4.70;36.60;;;;;;10441305;28;20256;-70
2023/02/10 10:13:28;;;;;;;30.70;23.97;;;4.90;36.70;;;;;;10443786;28;20237;-71
2023/02/10 10:18:40;;;;;;;28.30;23.70;;;5.00;36.50;;;;;;10442092;28;20337;-71
2023/02/10 10:23:56;;;;;;;28.60;22.93;;;5.20;36.00;;;;;;10445139;28;20717;-71
2023/02/10 10:29:14;;;;;;;26.30;21.77;;;5.30;35.20;;;;;;10428158;28;20634;-70
2023/02/10 10:34:19;;;;;;;28.70;23.43;;;5.40;35.20;;;;;;10435591;28;20233;-71
2023/02/10 10:39:30;;;;;;;25.80;22.33;;;5.50;35.60;;;;;;10434454;28;20236;-71
2023/02/10 10:44:36;;;;;;;27.60;23.07;;;5.70;35.40;;;;;;10425262;28;20232;-71
2023/02/10 10:49:39;;;;;;;28.57;23.53;;;6.00;35.40;;;;;;10436973;28;20232;-71
2023/02/10 10:54:42;;;;;;;27.63;22.53;;;6.20;35.20;;;;;;10429876;28;20248;-71
2023/02/10 10:59:52;;;;;;;27.73;23.17;;;6.30;35.00;;;;;;10435715;28;20233;-71
2023/02/10 11:05:03;;;;;;;28.03;23.50;;;6.40;34.80;;;;;;10436807;28;20240;-72
2023/02/10 11:10:07;;;;;;;27.97;23.37;;;6.60;34.10;;;;;;10431573;28;20564;-71
2023/02/10 11:15:31;;;;;;;28.27;22.33;;;6.70;34.40;;;;;;10433946;28;20229;-73
2023/02/10 11:20:36;;;;;;;28.03;23.83;;;6.70;33.40;;;;;;10433009;28;20237;-69
2023/02/10 11:25:40;;;;;;;26.57;23.10;;;6.80;33.80;;;;;;10435365;28;20233;-70
2023/02/10 11:30:48;;;;;;;29.23;23.90;;;6.80;33.90;;;;;;10436587;28;20240;-71
2023/02/10 11:35:58;;;;;;;28.10;24.03;;;6.90;33.40;;;;;;10437601;28;21271;-71
2023/02/10 11:41:05;;;;;;;30.20;23.33;;;7.00;33.20;;;;;;10417737;28;20233;-71
2023/02/10 11:46:20;;;;;;;26.43;22.23;;;7.10;33.20;;;;;;10415519;28;20231;-71
2023/02/10 11:51:24;;;;;;;26.90;22.40;;;7.10;32.50;;;;;;10420230;28;20827;-70
2023/02/10 12:02:05;;;;;;;27.20;22.47;;;7.30;32.60;;;;;;10415524;28;20247;-71
2023/02/10 12:07:19;;;;;;;27.10;23.17;;;7.30;33.00;;;;;;10426429;28;20220;-70
2023/02/10 12:12:30;;;;;;;24.37;21.37;;;7.40;32.50;;;;;;10440548;28;20236;-71
2023/02/10 12:17:40;;;;;;;26.10;21.50;;;7.50;32.80;;;;;;10435774;28;20237;-71
2023/02/10 12:22:58;;;;;;;27.33;23.03;;;7.70;32.40;;;;;;10447229;28;20783;-71
2023/02/10 12:28:06;;;;;;;26.53;22.90;;;7.70;31.50;;;;;;10430965;28;20244;-71
2023/02/10 12:33:39;;;;;;;26.73;22.73;;;7.80;32.10;;;;;;10435770;28;20279;-71
2023/02/10 12:38:56;;;;;;;28.43;22.73;;;7.80;31.50;;;;;;10432447;28;20240;-71
2023/02/10 12:44:10;;;;;;;25.80;21.87;;;7.80;31.40;;;;;;10432398;28;20970;-71
2023/02/10 12:49:26;;;;;;;24.63;21.70;;;7.90;31.30;;;;;;10437049;28;20236;-71
2023/02/10 12:54:40;;;;;;;25.80;22.00;;;7.90;31.30;;;;;;10436592;28;20239;-71
2023/02/10 12:59:54;;;;;;;27.37;23.97;;;8.00;31.80;;;;;;10446828;28;20242;-71
2023/02/10 13:05:04;;;;;;;26.27;23.47;;;8.10;31.40;;;;;;10434205;28;20229;-71
2023/02/10 13:10:18;;;;;;;28.17;24.03;;;8.10;31.30;;;;;;10432801;28;20233;-71
2023/02/10 13:15:26;;;;;;;28.27;24.83;;;8.10;31.40;;;;;;10424251;28;20233;-71
2023/02/10 13:20:43;;;;;;;28.37;24.70;;;8.10;31.40;;;;;;10435050;28;20239;-71
2023/02/10 13:26:08;;;;;;;26.67;23.57;;;8.10;31.20;;;;;;10434779;28;20225;-70
2023/02/10 13:31:26;;;;;;;28.40;24.00;;;8.10;31.00;;;;;;10437985;28;20239;-71
2023/02/10 13:36:35;;;;;;;27.33;23.07;;;8.20;31.30;;;;;;10438933;28;20289;-74
2023/02/10 13:41:46;;;;;;;27.27;23.37;;;8.20;31.00;;;;;;10449877;28;20264;-72
2023/02/10 13:46:55;;;;;;;26.77;22.63;;;8.20;31.50;;;;;;10430658;28;20239;-72
2023/02/10 13:52:13;;;;;;;26.27;23.43;;;8.20;30.90;;;;;;10431245;28;20235;-71
2023/02/10 13:57:28;;;;;;;27.00;23.47;;;8.20;30.40;;;;;;10436028;28;20225;-70
2023/02/10 14:02:31;;;;;;;25.80;23.00;;;8.20;30.40;;;;;;10423035;28;20968;-71
2023/02/10 14:07:37;;;;;;;29.77;25.97;;;8.20;31.60;;;;;;10427954;28;20260;-70
2023/02/10 14:12:41;;;;;;;28.40;24.93;;;8.20;31.00;;;;;;10441168;28;20233;-71
2023/02/10 14:17:57;;;;;;;28.10;24.73;;;8.20;31.30;;;;;;10437959;28;20276;-71
2023/02/10 14:23:03;;;;;;;29.33;24.37;;;8.10;30.80;;;;;;10443928;28;20244;-70
2023/02/10 14:28:18;;;;;;;27.50;23.47;;;8.10;31.30;;;;;;10440137;28;20231;-71
2023/02/10 14:33:26;;;;;;;27.47;23.90;;;8.10;31.50;;;;;;10442515;28;20289;-71
2023/02/10 14:38:34;;;;;;;27.47;24.03;;;8.10;31.00;;;;;;10440430;28;20232;-73
2023/02/10 14:43:37;;;;;;;25.63;22.77;;;8.10;31.00;;;;;;10443833;28;20238;-72
2023/02/10 14:48:41;;;;;;;27.30;24.33;;;8.20;31.30;;;;;;10429695;28;20244;-72
2023/02/10 14:53:45;;;;;;;27.00;22.43;;;8.20;31.30;;;;;;10431382;28;20645;-72
2023/02/10 14:58:48;;;;;;;25.87;21.27;;;8.20;30.90;;;;;;10441125;28;20228;-71
2023/02/10 15:03:57;;;;;;;24.90;22.20;;;8.20;31.00;;;;;;10440799;28;20268;-71
2023/02/10 15:09:04;;;;;;;24.47;21.47;;;8.20;30.40;;;;;;10436963;28;20237;-71
2023/02/10 15:14:16;;;;;;;24.93;21.57;;;8.10;30.30;;;;;;10437724;28;20232;-71
2023/02/10 15:19:19;;;;;;;25.27;22.13;;;8.10;30.10;;;;;;10436464;28;20628;-71
2023/02/10 15:24:28;;;;;;;24.37;21.67;;;8.10;30.50;;;;;;10445635;28;20243;-71
2023/02/10 15:29:36;;;;;;;25.97;22.77;;;8.10;30.20;;;;;;10427538;28;20618;-71
2023/02/10 15:34:39;;;;;;;25.70;21.80;;;8.00;30.20;;;;;;10428709;28;20260;-71
2023/02/10 15:39:55;;;;;;;24.80;21.80;;;8.00;30.70;;;;;;10433916;28;20681;-71
2023/02/10 15:45:04;;;;;;;24.67;21.73;;;8.00;30.00;;;;;;10431073;28;20228;-71
2023/02/10 15:50:07;;;;;;;24.67;20.53;;;8.00;30.60;;;;;;10435013;28;20244;-71
2023/02/10 15:55:18;;;;;;;24.37;21.27;;;8.10;31.10;;;;;;10433319;28;20315;-71
2023/02/10 16:00:26;;;;;;;22.70;20.23;;;8.10;30.50;;;;;;10440329;28;20239;-70
2023/02/10 16:05:30;;;;;;;26.07;23.27;;;8.00;30.50;;;;;;10436309;28;20736;-71
2023/02/10 16:10:34;;;;;;;25.33;21.03;;;8.00;30.80;;;;;;10436062;28;20232;-71
2023/02/10 16:15:37;;;;;;;33.33;24.77;;;7.90;31.30;;;;;;10439294;28;20236;-70
2023/02/10 16:20:41;;;;;;;29.30;23.13;;;7.90;30.70;;;;;;10433498;28;20754;-70
2023/02/10 16:25:47;;;;;;;29.00;21.83;;;7.80;30.70;;;;;;10430380;28;20251;-70
2023/02/10 16:30:52;;;;;;;25.43;22.73;;;7.70;30.50;;;;;;10432855;28;20693;-70
2023/02/10 16:35:55;;;;;;;29.47;23.40;;;7.60;30.60;;;;;;10434735;28;20221;-70
2023/02/10 16:41:03;;;;;;;23.93;20.70;;;7.50;30.60;;;;;;10434970;28;20760;-77
2023/02/10 16:46:10;;;;;;;24.97;20.63;;;7.40;30.40;;;;;;10437271;28;20228;-71
2023/02/10 16:51:14;;;;;;;24.33;19.40;;;7.20;30.50;;;;;;10441103;28;20244;-70
2023/02/10 16:56:19;;;;;;;25.90;21.03;;;7.10;30.60;;;;;;10436500;28;20225;-71
2023/02/10 17:01:22;;;;;;;36.53;27.67;;;7.10;30.80;;;;;;10431812;28;20717;-70
2023/02/10 17:06:26;;;;;;;29.87;26.23;;;7.00;30.70;;;;;;10429763;28;20228;-70
2023/02/10 17:11:30;;;;;;;29.93;23.80;;;6.90;30.60;;;;;;10435513;28;20233;-70
2023/02/10 17:16:36;;;;;;;29.77;24.63;;;6.80;30.80;;;;;;10434269;28;20229;-71
2023/02/10 17:21:42;;;;;;;24.80;21.03;;;6.60;30.60;;;;;;10437210;28;20257;-70
2023/02/10 17:26:47;;;;;;;24.40;20.67;;;6.50;30.70;;;;;;10429749;28;20232;-70
2023/02/10 17:31:50;;;;;;;26.90;23.40;;;6.50;30.80;;;;;;10438421;28;20242;-71
2023/02/10 17:36:53;;;;;;;24.47;20.10;;;6.40;30.90;;;;;;10439641;28;20323;-70
2023/02/10 17:41:58;;;;;;;30.00;25.53;;;6.40;31.10;;;;;;10428478;28;20720;-71
2023/02/10 17:47:02;;;;;;;25.40;21.20;;;6.30;30.90;;;;;;10441441;28;20228;-75
2023/02/10 17:52:05;;;;;;;29.53;23.97;;;6.20;31.00;;;;;;10439516;28;20282;-73
2023/02/10 17:57:14;;;;;;;26.23;20.87;;;6.20;31.20;;;;;;10432355;28;20248;-73
2023/02/10 18:02:17;;;;;;;25.27;22.17;;;6.10;31.20;;;;;;10441511;28;20228;-73
2023/02/10 18:07:20;;;;;;;30.03;25.57;;;5.90;31.00;;;;;;10447065;28;20229;-73
2023/02/10 18:12:25;;;;;;;34.70;27.47;;;5.90;31.00;;;;;;10440627;28;20242;-73
2023/02/10 18:17:28;;;;;;;36.40;27.00;;;5.80;31.10;;;;;;10442437;28;20705;-73
2023/02/10 18:22:32;;;;;;;29.00;22.90;;;5.80;31.40;;;;;;10443855;28;20286;-74
2023/02/10 18:27:36;;;;;;;28.50;24.07;;;5.70;31.30;;;;;;10452684;28;20233;-72
2023/02/10 18:32:40;;;;;;;34.60;25.17;;;5.60;31.20;;;;;;10444761;28;20229;-71
2023/02/10 18:37:44;;;;;;;30.00;23.87;;;5.50;31.20;;;;;;10433168;28;20257;-71
2023/02/10 18:42:49;;;;;;;26.13;22.07;;;5.50;31.40;;;;;;10441696;28;20625;-71
2023/02/10 18:47:52;;;;;;;27.60;21.90;;;5.40;31.40;;;;;;10435648;28;20732;-71
2023/02/10 18:52:55;;;;;;;26.83;22.93;;;5.30;31.50;;;;;;10441825;28;20236;-73
2023/02/10 18:58:02;;;;;;;23.17;18.83;;;5.20;31.50;;;;;;10437381;28;20230;-71
2023/02/10 19:03:05;;;;;;;25.13;21.20;;;5.20;31.70;;;;;;10441791;28;20229;-71
2023/02/10 19:08:08;;;;;;;37.23;27.93;;;5.10;31.70;;;;;;10440442;28;20233;-71
2023/02/10 19:13:13;;;;;;;36.23;26.73;;;5.00;31.70;;;;;;10446467;28;20713;-73
2023/02/10 19:18:16;;;;;;;34.60;26.17;;;5.00;31.60;;;;;;10447639;28;20224;-71
2023/02/10 19:23:20;;;;;;;30.27;24.20;;;4.90;31.60;;;;;;10435653;28;20233;-71
2023/02/10 19:28:25;;;;;;;25.97;22.00;;;4.90;31.80;;;;;;10438404;28;20232;-72
2023/02/10 19:33:28;;;;;;;29.00;23.17;;;4.90;31.90;;;;;;10450560;28;20273;-73
2023/02/10 19:38:32;;;;;;;28.33;23.33;;;4.80;31.70;;;;;;10447117;28;20232;-72
2023/02/10 19:43:36;;;;;;;29.50;23.40;;;4.80;31.80;;;;;;10438444;28;20234;-72
2023/02/10 19:48:40;;;;;;;28.13;22.67;;;4.70;31.90;;;;;;10438801;28;20347;-72
2023/02/10 19:53:45;;;;;;;29.27;23.90;;;4.70;31.90;;;;;;10440590;28;21025;-72
2023/02/10 19:58:49;;;;;;;30.23;25.83;;;4.70;32.00;;;;;;10443100;28;20230;-72
2023/02/10 20:03:55;;;;;;;28.03;22.77;;;4.60;31.90;;;;;;10438399;28;20661;-72
2023/02/10 20:08:59;;;;;;;31.83;26.23;;;4.50;31.80;;;;;;10434941;28;20319;-73
2023/02/10 20:14:04;;;;;;;30.97;24.53;;;4.40;31.90;;;;;;10440991;28;20229;-72
2023/02/10 20:19:10;;;;;;;28.67;22.50;;;4.40;32.10;;;;;;10433481;28;20229;-73
2023/02/10 20:24:13;;;;;;;27.67;22.93;;;4.30;32.10;;;;;;10435884;28;20253;-73
2023/02/10 20:29:18;;;;;;;32.17;23.97;;;4.30;32.00;;;;;;10442970;28;20655;-70
2023/02/10 20:34:21;;;;;;;25.40;21.43;;;4.30;32.10;;;;;;10441796;28;20248;-71
2023/02/10 20:39:24;;;;;;;28.67;24.17;;;4.20;31.90;;;;;;10439017;28;20764;-71
2023/02/10 20:44:29;;;;;;;27.17;24.23;;;4.20;32.10;;;;;;10434871;28;20225;-70
2023/02/10 20:49:32;;;;;;;29.40;23.57;;;4.10;32.20;;;;;;10443408;28;20233;-71
2023/02/10 20:54:36;;;;;;;35.80;28.60;;;4.10;32.20;;;;;;10433203;28;20248;-71
2023/02/10 20:59:41;;;;;;;34.90;25.93;;;4.30;32.30;;;;;;10443437;28;20225;-71
2023/02/10 21:04:47;;;;;;;26.87;21.70;;;4.20;32.30;;;;;;10435608;28;20247;-71
2023/02/10 21:09:50;;;;;;;31.10;24.90;;;4.00;32.10;;;;;;10441240;28;21127;-71
2023/02/10 21:14:55;;;;;;;34.70;25.60;;;4.00;32.20;;;;;;10441875;28;20225;-71
2023/02/10 21:19:58;;;;;;;33.10;25.37;;;3.90;32.40;;;;;;10439713;28;20227;-71
2023/02/10 21:25:07;;;;;;;32.87;26.73;;;3.80;32.30;;;;;;10446730;28;20228;-72
2023/02/10 21:30:12;;;;;;;30.57;22.70;;;3.80;32.40;;;;;;10444780;28;20684;-71
2023/02/10 21:35:16;;;;;;;27.57;21.80;;;3.70;32.40;;;;;;10447202;28;20234;-71
2023/02/10 21:40:19;;;;;;;33.43;26.03;;;3.70;32.40;;;;;;10456192;28;20596;-71
2023/02/10 21:45:24;;;;;;;30.87;22.73;;;3.70;32.40;;;;;;10448038;28;20567;-71
2023/02/10 21:50:27;;;;;;;33.07;26.23;;;3.60;32.40;;;;;;10440407;28;20722;-72
2023/02/10 21:55:30;;;;;;;30.27;23.57;;;3.60;32.30;;;;;;10453577;28;20220;-72
2023/02/10 22:00:35;;;;;;;25.73;21.60;;;3.50;32.30;;;;;;10443558;28;20232;-74
2023/02/10 22:05:38;;;;;;;30.10;24.50;;;3.50;32.60;;;;;;10445228;28;20236;-74
2023/02/10 22:10:41;;;;;;;36.87;28.47;;;3.50;32.50;;;;;;10447010;28;20233;-74
2023/02/10 22:15:52;;;;;;;40.50;30.27;;;3.40;32.40;;;;;;10447778;28;20236;-74
2023/02/10 22:20:56;;;;;;;41.43;28.80;;;3.40;32.70;;;;;;10444188;28;20237;-74
2023/02/10 22:25:59;;;;;;;33.33;26.50;;;3.30;32.40;;;;;;10447002;28;20229;-73
2023/02/10 22:31:06;;;;;;;25.47;20.23;;;3.30;32.40;;;;;;10437678;28;20248;-72
2023/02/10 22:36:11;;;;;;;27.63;22.43;;;3.20;32.60;;;;;;10434424;28;20760;-74
2023/02/10 22:41:16;;;;;;;32.67;24.60;;;3.20;32.50;;;;;;10432506;28;20230;-74
2023/02/10 22:46:21;;;;;;;29.33;23.50;;;3.20;32.60;;;;;;10441120;28;20274;-74
2023/02/10 22:51:25;;;;;;;29.30;23.87;;;3.10;32.60;;;;;;10449300;28;20608;-73
2023/02/10 22:56:30;;;;;;;31.60;24.73;;;3.00;32.60;;;;;;10445829;28;20713;-73
2023/02/10 23:01:38;;;;;;;39.00;27.00;;;3.00;32.70;;;;;;10444792;28;20320;-74
2023/02/10 23:06:42;;;;;;;38.03;27.57;;;2.90;32.70;;;;;;10443008;28;20236;-74
2023/02/10 23:11:47;;;;;;;45.93;28.30;;;2.90;32.60;;;;;;10439725;28;20724;-74
2023/02/10 23:16:54;;;;;;;36.00;27.03;;;2.90;32.60;;;;;;10441302;28;20230;-74
2023/02/10 23:22:01;;;;;;;29.17;21.77;;;2.80;32.70;;;;;;10437034;28;20233;-74
2023/02/10 23:27:04;;;;;;;31.47;24.10;;;2.70;32.70;;;;;;10439348;28;20301;-73
2023/02/10 23:32:09;;;;;;;37.13;26.27;;;2.70;32.70;;;;;;10443339;28;20232;-74
2023/02/10 23:37:12;;;;;;;28.00;22.33;;;2.60;32.70;;;;;;10447966;28;20222;-73
2023/02/10 23:42:15;;;;;;;30.10;23.97;;;2.60;32.70;;;;;;10435582;28;20229;-73
2023/02/10 23:47:20;;;;;;;33.07;25.30;;;2.60;32.70;;;;;;10449460;28;20693;-74
2023/02/10 23:52:23;;;;;;;32.60;23.30;;;2.50;32.60;;;;;;10443140;28;20228;-73
2023/02/10 23:57:26;;;;;;;23.93;20.30;;;2.50;32.80;;;;;;10440349;28;20704;-73
